Time;durP1;ratioP1;P1;durP2;ratioP2;P2;SDS_P1;SDS_P2;PMS_P1;PMS_P2;Temp;Humidity;BMP_temperature;BMP_pressure;BME280_temperature;BME280_humidity;BME280_pressure;Samples;Min_cycle;Max_cycle;Signal;HPM_P1;HPM_P2
2022/09/15 00:00:26;;;;;;;105.45;35.25;;;;;;;-145.01;100.00;64805.59;5055478;28;20625;-56
2022/09/15 00:02:53;;;;;;;106.10;36.70;;;;;;;-145.01;100.00;64805.59;5050418;28;20033;-55
2022/09/15 00:05:19;;;;;;;114.18;37.90;;;;;;;-145.01;100.00;64805.59;5049615;28;20072;-55
2022/09/15 00:07:44;;;;;;;101.20;35.38;;;;;;;-145.01;100.00;64805.59;5050389;28;20641;-55
2022/09/15 00:10:10;;;;;;;122.75;40.80;;;;;;;-145.01;100.00;64805.59;5050645;28;20032;-55
2022/09/15 00:12:35;;;;;;;100.07;38.03;;;;;;;-145.01;100.00;64805.59;5050371;28;20028;-55
2022/09/15 00:15:03;;;;;;;113.93;40.25;;;;;;;-145.01;100.00;64805.59;5060325;28;20051;-55
2022/09/15 00:17:30;;;;;;;104.22;38.10;;;;;;;-145.01;100.00;64805.59;5058660;28;20387;-54
2022/09/15 00:19:57;;;;;;;116.72;41.60;;;;;;;-145.01;100.00;64805.59;5054336;28;20116;-55
2022/09/15 00:22:22;;;;;;;100.15;39.28;;;;;;;-145.01;100.00;64805.59;5057268;28;20592;-56
2022/09/15 00:24:48;;;;;;;105.05;39.65;;;;;;;-145.01;100.00;64805.59;5052472;28;20028;-55
2022/09/15 00:27:15;;;;;;;92.35;36.22;;;;;;;-145.01;100.00;64805.59;5049794;28;20032;-55
2022/09/15 00:29:40;;;;;;;107.15;40.03;;;;;;;-145.01;100.00;64805.59;5055731;28;20020;-54
2022/09/15 00:32:06;;;;;;;94.85;40.33;;;;;;;-145.01;100.00;64805.59;5081914;28;20031;-55
2022/09/15 00:34:31;;;;;;;116.47;45.83;;;;;;;-145.01;100.00;64805.59;5048936;28;20104;-56
2022/09/15 00:36:57;;;;;;;101.65;40.92;;;;;;;-145.01;100.00;64805.59;5053251;28;20013;-55
2022/09/15 00:39:22;;;;;;;108.93;41.03;;;;;;;-145.01;100.00;64805.59;5059863;28;20523;-55
2022/09/15 00:41:47;;;;;;;97.70;38.15;;;;;;;-145.01;100.00;64805.59;5081735;28;20032;-55
2022/09/15 00:44:19;;;;;;;105.93;40.30;;;;;;;-145.01;100.00;64805.59;5049419;28;20032;-55
2022/09/15 00:46:47;;;;;;;103.30;39.80;;;;;;;-145.01;100.00;64805.59;5056640;28;20028;-56
2022/09/15 00:49:20;;;;;;;122.32;44.35;;;;;;;-145.01;100.00;64805.59;5051069;28;20032;-55
2022/09/15 00:51:54;;;;;;;124.18;46.05;;;;;;;-145.01;100.00;64805.59;5050966;28;20025;-55
2022/09/15 00:54:33;;;;;;;124.75;47.35;;;;;;;-145.01;100.00;64805.59;5051864;28;20566;-55
2022/09/15 00:57:00;;;;;;;107.18;41.83;;;;;;;-145.01;100.00;64805.59;5065230;28;20033;-55
2022/09/15 00:59:27;;;;;;;119.03;46.03;;;;;;;-145.01;100.00;64805.59;5048479;28;20470;-55
2022/09/15 01:01:59;;;;;;;117.38;43.42;;;;;;;-145.01;100.00;64805.59;5058966;28;20034;-56
2022/09/15 01:04:25;;;;;;;101.65;40.08;;;;;;;-145.01;100.00;64805.59;5060625;28;20047;-55
2022/09/15 01:06:54;;;;;;;99.07;39.80;;;;;;;-145.01;100.00;64805.59;5054036;28;20037;-55
2022/09/15 01:09:30;;;;;;;103.65;40.10;;;;;;;-145.01;100.00;64805.59;5086402;28;20056;-55
2022/09/15 01:11:55;;;;;;;108.60;43.35;;;;;;;-145.01;100.00;64805.59;5084110;28;20024;-55
2022/09/15 01:14:21;;;;;;;112.78;44.15;;;;;;;-145.01;100.00;64805.59;5055739;28;20048;-55
2022/09/15 01:16:52;;;;;;;99.55;39.85;;;;;;;-145.01;100.00;64805.59;5053426;28;20375;-55
2022/09/15 01:19:51;;;;;;;93.05;37.95;;;;;;;-145.01;100.00;64805.59;5069479;28;20108;-54
2022/09/15 01:22:38;;;;;;;89.55;37.55;;;;;;;-145.01;100.00;64805.59;5040718;28;20028;-54
2022/09/15 01:25:32;;;;;;;93.75;35.53;;;;;;;-145.01;100.00;64805.59;5052522;28;20554;-55
2022/09/15 01:28:29;;;;;;;109.80;38.83;;;;;;;-145.01;100.00;64805.59;5049722;28;20021;-55
2022/09/15 01:31:32;;;;;;;107.63;39.35;;;;;;;-145.01;100.00;64805.59;5014395;28;20488;-54
2022/09/15 01:34:27;;;;;;;106.63;39.03;;;;;;;-145.01;100.00;64805.59;5024284;28;20049;-54
2022/09/15 01:36:56;;;;;;;106.20;39.63;;;;;;;-145.01;100.00;64805.59;5044061;28;20085;-55
2022/09/15 01:39:27;;;;;;;104.25;40.35;;;;;;;-145.01;100.00;64805.59;5057046;28;20135;-55
2022/09/15 01:41:57;;;;;;;114.90;43.22;;;;;;;-145.01;100.00;64805.59;5047432;28;20476;-54
2022/09/15 01:44:57;;;;;;;95.13;34.70;;;;;;;-145.01;100.00;64805.59;5040831;28;20023;-55
2022/09/15 01:47:22;;;;;;;119.85;44.95;;;;;;;-145.01;100.00;64805.59;5007697;28;20048;-55
2022/09/15 01:50:00;;;;;;;122.25;43.08;;;;;;;-145.01;100.00;64805.59;5047019;28;20025;-55
2022/09/15 01:52:27;;;;;;;107.65;39.88;;;;;;;-145.01;100.00;64805.59;5065449;28;20050;-55
2022/09/15 01:54:55;;;;;;;112.50;40.90;;;;;;;-145.01;100.00;64805.59;5049931;28;20404;-54
2022/09/15 01:57:20;;;;;;;103.53;41.15;;;;;;;-145.01;100.00;64805.59;5054120;28;20055;-54
2022/09/15 01:59:49;;;;;;;115.80;43.10;;;;;;;-145.01;100.00;64805.59;5053081;28;20464;-54
2022/09/15 02:02:21;;;;;;;119.70;43.65;;;;;;;-145.01;100.00;64805.59;5043350;28;20021;-55
2022/09/15 02:05:24;;;;;;;107.97;41.55;;;;;;;-145.01;100.00;64805.59;5053134;28;20128;-55
2022/09/15 02:08:03;;;;;;;102.70;40.53;;;;;;;-145.01;100.00;64805.59;5048503;28;20079;-55
2022/09/15 02:10:39;;;;;;;102.65;39.55;;;;;;;-145.01;100.00;64805.59;5069788;28;20057;-53
2022/09/15 02:13:30;;;;;;;103.65;41.92;;;;;;;-145.01;100.00;64805.59;5055603;28;20025;-55
2022/09/15 02:15:56;;;;;;;102.72;38.25;;;;;;;-145.01;100.00;64805.59;5047544;28;20029;-54
2022/09/15 02:18:44;;;;;;;91.15;39.28;;;;;;;-145.01;100.00;64805.59;5055910;28;20036;-54
2022/09/15 02:21:13;;;;;;;109.25;41.90;;;;;;;-145.01;100.00;64805.59;5047328;28;20031;-54
2022/09/15 02:23:42;;;;;;;110.05;40.83;;;;;;;-145.01;100.00;64805.59;5031303;28;20029;-54
2022/09/15 02:26:12;;;;;;;97.82;38.67;;;;;;;-145.01;100.00;64805.59;5054310;28;20025;-54
2022/09/15 02:28:38;;;;;;;92.60;37.95;;;;;;;-145.01;100.00;64805.59;5017789;28;20107;-55
2022/09/15 02:31:05;;;;;;;91.13;35.95;;;;;;;-145.01;100.00;64805.59;5051438;28;20382;-54
2022/09/15 02:33:56;;;;;;;90.55;36.55;;;;;;;-145.01;100.00;64805.59;5057207;28;20047;-54
2022/09/15 02:36:21;;;;;;;85.18;37.00;;;;;;;-145.01;100.00;64805.59;5046799;28;20032;-55
2022/09/15 02:38:53;;;;;;;91.18;37.25;;;;;;;-145.01;100.00;64805.59;5034112;28;20048;-54
2022/09/15 02:41:18;;;;;;;85.03;35.63;;;;;;;-145.01;100.00;64805.59;5050490;28;20086;-55
2022/09/15 02:43:48;;;;;;;90.75;34.88;;;;;;;-145.01;100.00;64805.59;5050600;28;20076;-54
2022/09/15 02:46:14;;;;;;;102.05;38.50;;;;;;;-145.01;100.00;64805.59;5050587;28;20032;-54
2022/09/15 02:48:40;;;;;;;98.60;35.28;;;;;;;-145.01;100.00;64805.59;5091106;28;20028;-55
2022/09/15 02:51:05;;;;;;;96.93;37.85;;;;;;;-145.01;100.00;64805.59;5056505;28;20052;-54
2022/09/15 02:53:30;;;;;;;100.00;38.53;;;;;;;-145.01;100.00;64805.59;5051769;28;20384;-55
2022/09/15 02:55:56;;;;;;;97.72;37.80;;;;;;;-145.01;100.00;64805.59;5057543;28;20020;-54
2022/09/15 02:58:22;;;;;;;106.35;39.20;;;;;;;-145.01;100.00;64805.59;5056529;28;20434;-55
2022/09/15 03:00:49;;;;;;;94.28;40.10;;;;;;;-145.01;100.00;64805.59;5083917;28;20017;-54
2022/09/15 03:03:14;;;;;;;102.90;38.85;;;;;;;-145.01;100.00;64805.59;5056761;28;20033;-56
2022/09/15 03:05:40;;;;;;;106.60;38.05;;;;;;;-145.01;100.00;64805.59;5058545;28;20025;-55
2022/09/15 03:08:05;;;;;;;97.78;37.53;;;;;;;-145.01;100.00;64805.59;5064844;28;20095;-55
2022/09/15 03:10:32;;;;;;;107.85;40.10;;;;;;;-145.01;100.00;64805.59;5054931;28;20029;-55
2022/09/15 03:12:57;;;;;;;104.20;39.33;;;;;;;-145.01;100.00;64805.59;5051682;28;20566;-54
2022/09/15 03:15:24;;;;;;;113.45;40.20;;;;;;;-145.01;100.00;64805.59;5058109;28;20028;-55
2022/09/15 03:17:49;;;;;;;120.50;41.60;;;;;;;-145.01;100.00;64805.59;5054476;28;20387;-55
2022/09/15 03:20:20;;;;;;;125.43;44.47;;;;;;;-145.01;100.00;64805.59;5054080;28;20094;-54
2022/09/15 03:22:45;;;;;;;122.85;43.28;;;;;;;-145.01;100.00;64805.59;5051462;28;20033;-55
2022/09/15 03:25:11;;;;;;;147.88;50.00;;;;;;;-145.01;100.00;64805.59;5057772;28;20017;-54
2022/09/15 03:27:36;;;;;;;138.00;47.08;;;;;;;-145.01;100.00;64805.59;5054902;28;20017;-55
2022/09/15 03:30:04;;;;;;;147.60;48.78;;;;;;;-145.01;100.00;64805.59;5051318;28;20021;-54
2022/09/15 03:32:29;;;;;;;143.63;46.63;;;;;;;-145.01;100.00;64805.59;5051323;28;20033;-53
2022/09/15 03:34:54;;;;;;;146.60;48.65;;;;;;;-145.01;100.00;64805.59;5050941;28;20033;-55
2022/09/15 03:37:20;;;;;;;146.50;48.03;;;;;;;-145.01;100.00;64805.59;5053410;28;20029;-55
2022/09/15 03:39:46;;;;;;;135.93;46.03;;;;;;;-145.01;100.00;64805.59;5057929;28;20453;-54
2022/09/15 03:42:11;;;;;;;148.60;47.83;;;;;;;-145.01;100.00;64805.59;5055671;28;20117;-55
2022/09/15 03:44:37;;;;;;;147.25;46.97;;;;;;;-145.01;100.00;64805.59;5058603;28;20035;-55
2022/09/15 03:47:02;;;;;;;141.20;46.80;;;;;;;-145.01;100.00;64805.59;5058751;28;20021;-54
2022/09/15 03:49:28;;;;;;;150.98;47.78;;;;;;;-145.01;100.00;64805.59;5057730;28;20120;-54
2022/09/15 03:51:54;;;;;;;141.02;46.67;;;;;;;-145.01;100.00;64805.59;5055096;28;20107;-55
2022/09/15 03:54:19;;;;;;;156.13;49.45;;;;;;;-145.01;100.00;64805.59;5050811;28;20029;-54
2022/09/15 03:56:48;;;;;;;148.15;48.53;;;;;;;-145.01;100.00;64805.59;5050900;28;20025;-55
2022/09/15 03:59:14;;;;;;;163.90;47.60;;;;;;;-145.01;100.00;64805.59;5061531;28;20548;-55
2022/09/15 04:01:40;;;;;;;148.95;46.90;;;;;;;-145.01;100.00;64805.59;5057620;28;20085;-55
2022/09/15 04:04:05;;;;;;;142.20;48.38;;;;;;;-145.01;100.00;64805.59;5055934;28;20124;-55
2022/09/15 04:06:31;;;;;;;146.07;48.45;;;;;;;-145.01;100.00;64805.59;5061894;28;20098;-55
2022/09/15 04:08:56;;;;;;;153.27;48.95;;;;;;;-145.01;100.00;64805.59;5054772;28;20033;-55
2022/09/15 04:11:22;;;;;;;163.55;50.20;;;;;;;-145.01;100.00;64805.59;5050541;28;20604;-55
2022/09/15 04:13:47;;;;;;;145.48;46.88;;;;;;;-145.01;100.00;64805.59;5056256;28;20028;-55
2022/09/15 04:16:16;;;;;;;159.32;48.38;;;;;;;-145.01;100.00;64805.59;5050914;28;20435;-55
2022/09/15 04:18:41;;;;;;;168.43;47.78;;;;;;;-145.01;100.00;64805.59;5057837;28;20021;-54
2022/09/15 04:21:10;;;;;;;144.82;46.58;;;;;;;-145.01;100.00;64805.59;5052332;28;20029;-54
2022/09/15 04:23:36;;;;;;;145.93;45.00;;;;;;;-145.01;100.00;64805.59;5055086;28;20021;-54
2022/09/15 04:26:03;;;;;;;143.98;45.97;;;;;;;-145.01;100.00;64805.59;5048482;28;20036;-55
2022/09/15 04:28:31;;;;;;;132.55;44.92;;;;;;;-145.01;100.00;64805.59;5053389;28;20025;-55
2022/09/15 04:31:11;;;;;;;132.98;45.75;;;;;;;-145.01;100.00;64805.59;5050956;28;20047;-54
2022/09/15 04:33:37;;;;;;;;;;;;;;;-145.01;100.00;64805.59;5056740;28;20036;-54
2022/09/15 04:36:10;;;;;;;124.72;40.00;;;;;;;-145.01;100.00;64805.59;5056672;28;19920;-55
2022/09/15 04:38:36;;;;;;;131.15;43.88;;;;;;;-145.01;100.00;64805.59;5050204;28;20029;-54
2022/09/15 04:41:01;;;;;;;147.18;46.95;;;;;;;-145.01;100.00;64805.59;5049068;28;20033;-55
2022/09/15 04:43:27;;;;;;;140.50;45.90;;;;;;;-145.01;100.00;64805.59;5056296;28;20111;-56
2022/09/15 04:45:52;;;;;;;145.65;44.55;;;;;;;-145.01;100.00;64805.59;5053436;28;20111;-55
2022/09/15 04:48:18;;;;;;;134.40;44.92;;;;;;;-145.01;100.00;64805.59;5050103;28;20463;-55
2022/09/15 04:50:44;;;;;;;141.85;45.60;;;;;;;-145.01;100.00;64805.59;5055472;28;20029;-56
2022/09/15 04:53:09;;;;;;;121.35;41.90;;;;;;;-145.01;100.00;64805.59;5055917;28;20059;-54
2022/09/15 04:55:38;;;;;;;123.13;41.35;;;;;;;-145.01;100.00;64805.59;5056602;28;20036;-55
2022/09/15 04:58:03;;;;;;;121.28;39.25;;;;;;;-145.01;100.00;64805.59;5052357;28;20033;-53
2022/09/15 05:00:29;;;;;;;122.63;40.00;;;;;;;-145.01;100.00;64805.59;5055871;28;20383;-54
2022/09/15 05:02:55;;;;;;;117.72;36.70;;;;;;;-145.01;100.00;64805.59;5082373;28;20071;-55
2022/09/15 05:05:20;;;;;;;107.03;36.95;;;;;;;-145.01;100.00;64805.59;5052686;28;20049;-55
2022/09/15 05:07:46;;;;;;;120.90;38.55;;;;;;;-145.01;100.00;64805.59;5054760;28;20028;-54
2022/09/15 05:10:12;;;;;;;107.90;37.33;;;;;;;-145.01;100.00;64805.59;5051948;28;20025;-54
2022/09/15 05:12:37;;;;;;;102.95;36.55;;;;;;;-145.01;100.00;64805.59;5057702;28;20120;-55
2022/09/15 05:15:03;;;;;;;98.97;35.38;;;;;;;-145.01;100.00;64805.59;5054416;28;20058;-53
2022/09/15 05:17:31;;;;;;;104.28;36.67;;;;;;;-145.01;100.00;64805.59;5048657;28;20029;-54
2022/09/15 05:19:57;;;;;;;101.50;36.33;;;;;;;-145.01;100.00;64805.59;5054143;28;20120;-54
2022/09/15 05:22:22;;;;;;;97.82;34.80;;;;;;;-145.01;100.00;64805.59;5048321;28;20295;-53
2022/09/15 05:24:48;;;;;;;104.00;36.72;;;;;;;-145.01;100.00;64805.59;5052794;28;20074;-55
2022/09/15 05:27:13;;;;;;;106.10;38.33;;;;;;;-145.01;100.00;64805.59;5055872;28;20483;-55
2022/09/15 05:29:38;;;;;;;113.57;36.90;;;;;;;-145.01;100.00;64805.59;5049760;28;20029;-54
2022/09/15 05:32:07;;;;;;;97.43;37.13;;;;;;;-145.01;100.00;64805.59;5053306;28;20403;-55
2022/09/15 05:34:32;;;;;;;118.97;36.35;;;;;;;-145.01;100.00;64805.59;5057363;28;20419;-54
2022/09/15 05:36:57;;;;;;;95.22;36.45;;;;;;;-145.01;100.00;64805.59;5053431;28;20463;-54
2022/09/15 05:39:23;;;;;;;110.55;36.65;;;;;;;-145.01;100.00;64805.59;5050249;28;20036;-54
2022/09/15 05:41:48;;;;;;;108.20;37.90;;;;;;;-145.01;100.00;64805.59;5055333;28;20025;-55
2022/09/15 05:44:14;;;;;;;98.15;36.75;;;;;;;-145.01;100.00;64805.59;5056132;28;20048;-54
2022/09/15 05:46:39;;;;;;;102.80;36.38;;;;;;;-145.01;100.00;64805.59;5054299;28;20032;-54
2022/09/15 05:49:07;;;;;;;99.78;35.58;;;;;;;-145.01;100.00;64805.59;5056491;28;20029;-55
2022/09/15 05:51:33;;;;;;;94.43;33.55;;;;;;;-145.01;100.00;64805.59;5063276;28;20494;-55
2022/09/15 05:53:58;;;;;;;82.15;33.17;;;;;;;-145.01;100.00;64805.59;5064068;28;20031;-54
2022/09/15 05:56:24;;;;;;;82.07;33.08;;;;;;;-145.01;100.00;64805.59;5089334;28;20036;-54
2022/09/15 05:58:49;;;;;;;93.35;32.30;;;;;;;-145.01;100.00;64805.59;5049559;28;20028;-55
2022/09/15 06:01:19;;;;;;;78.78;29.63;;;;;;;-145.01;100.00;64805.59;5049599;28;20036;-55
2022/09/15 06:03:45;;;;;;;79.88;30.98;;;;;;;-145.01;100.00;64805.59;5054752;28;20128;-54
2022/09/15 06:06:11;;;;;;;72.53;29.73;;;;;;;-145.01;100.00;64805.59;5052287;28;20037;-55
2022/09/15 06:08:39;;;;;;;76.68;28.08;;;;;;;-145.01;100.00;64805.59;5056382;28;20476;-54
2022/09/15 06:11:11;;;;;;;75.88;27.77;;;;;;;-145.01;100.00;64805.59;5059794;28;20056;-55
2022/09/15 06:13:37;;;;;;;79.65;27.23;;;;;;;-145.01;100.00;64805.59;5053712;28;20037;-54
2022/09/15 06:16:07;;;;;;;66.40;25.73;;;;;;;-145.01;100.00;64805.59;5056702;28;20047;-55
2022/09/15 06:18:34;;;;;;;57.60;25.00;;;;;;;-145.01;100.00;64805.59;5059800;28;20029;-55
2022/09/15 06:21:07;;;;;;;61.80;26.15;;;;;;;-145.01;100.00;64805.59;5057670;28;20029;-55
2022/09/15 06:23:32;;;;;;;87.00;28.00;;;;;;;-145.01;100.00;64805.59;5054174;28;20056;-55
2022/09/15 06:26:16;;;;;;;54.97;24.42;;;;;;;-145.01;100.00;64805.59;5060106;28;20049;-55
2022/09/15 06:28:47;;;;;;;48.15;22.13;;;;;;;-145.01;100.00;64805.59;5061261;28;20229;-55
2022/09/15 06:31:12;;;;;;;52.70;21.77;;;;;;;-145.01;100.00;64805.59;5057131;28;20044;-55
2022/09/15 06:33:56;;;;;;;49.47;22.98;;;;;;;-145.01;100.00;64805.59;5056619;28;20025;-53
2022/09/15 06:36:26;;;;;;;47.17;20.95;;;;;;;-145.01;100.00;64805.59;5068726;28;20087;-54
2022/09/15 06:38:51;;;;;;;50.10;20.48;;;;;;;-145.01;100.00;64805.59;5056925;28;20028;-55
2022/09/15 06:41:17;;;;;;;45.67;20.42;;;;;;;-145.01;100.00;64805.59;5056231;28;20033;-55
2022/09/15 06:43:43;;;;;;;44.25;17.20;;;;;;;-145.01;100.00;64805.59;5051223;28;20036;-55
2022/09/15 06:46:16;;;;;;;38.80;16.95;;;;;;;-145.01;100.00;64805.59;5051892;28;20036;-55
2022/09/15 06:48:41;;;;;;;46.42;17.10;;;;;;;-145.01;100.00;64805.59;5057880;28;20379;-55
2022/09/15 06:51:08;;;;;;;45.58;17.08;;;;;;;-145.01;100.00;64805.59;5056941;28;20036;-55
2022/09/15 06:53:34;;;;;;;33.17;16.17;;;;;;;-145.01;100.00;64805.59;5087054;28;20025;-54
2022/09/15 06:56:11;;;;;;;32.92;16.23;;;;;;;-145.01;100.00;64805.59;5052572;28;20491;-55
2022/09/15 06:58:37;;;;;;;34.85;16.45;;;;;;;-145.01;100.00;64805.59;5060212;28;20711;-56
2022/09/15 07:01:13;;;;;;;31.33;14.27;;;;;;;-145.01;100.00;64805.59;5052380;28;20415;-54
2022/09/15 07:03:41;;;;;;;33.35;13.90;;;;;;;-145.01;100.00;64805.59;5084227;28;20152;-55
2022/09/15 07:06:07;;;;;;;28.70;13.55;;;;;;;-145.01;100.00;64805.59;5061472;28;20541;-55
2022/09/15 07:08:32;;;;;;;26.10;12.30;;;;;;;-145.01;100.00;64805.59;5058776;28;20017;-55
2022/09/15 07:10:58;;;;;;;25.45;12.60;;;;;;;-145.01;100.00;64805.59;5059959;28;20028;-56
2022/09/15 07:13:23;;;;;;;27.23;13.10;;;;;;;-145.01;100.00;64805.59;5064735;28;20032;-55
2022/09/15 07:15:55;;;;;;;25.27;12.93;;;;;;;-145.01;100.00;64805.59;5055574;28;20033;-55
2022/09/15 07:18:21;;;;;;;23.52;13.18;;;;;;;-145.01;100.00;64805.59;5083407;28;20043;-55
2022/09/15 07:20:47;;;;;;;29.65;12.95;;;;;;;-145.01;100.00;64805.59;5055341;28;20025;-55
2022/09/15 07:23:12;;;;;;;29.60;13.32;;;;;;;-145.01;100.00;64805.59;5063093;28;20035;-55
2022/09/15 07:25:37;;;;;;;32.33;12.43;;;;;;;-145.01;100.00;64805.59;5060188;28;20060;-55
2022/09/15 07:28:03;;;;;;;25.88;11.85;;;;;;;-145.01;100.00;64805.59;5054390;28;20013;-56
2022/09/15 07:30:28;;;;;;;29.85;12.55;;;;;;;-145.01;100.00;64805.59;5051664;28;20037;-55
2022/09/15 07:32:54;;;;;;;31.08;12.18;;;;;;;-145.01;100.00;64805.59;5057425;28;20040;-56
2022/09/15 07:35:20;;;;;;;26.90;12.32;;;;;;;-145.01;100.00;64805.59;5058691;28;20021;-55
2022/09/15 07:37:47;;;;;;;26.73;11.77;;;;;;;-145.01;100.00;64805.59;5053155;28;20056;-55
2022/09/15 07:40:13;;;;;;;26.48;12.65;;;;;;;-145.01;100.00;64805.59;5053387;28;20029;-55
2022/09/15 07:42:42;;;;;;;26.85;13.30;;;;;;;-145.01;100.00;64805.59;5051665;28;20039;-55
2022/09/15 07:45:08;;;;;;;34.50;13.67;;;;;;;-145.01;100.00;64805.59;5054269;28;20509;-55
2022/09/15 07:47:33;;;;;;;33.20;13.23;;;;;;;-145.01;100.00;64805.59;5055527;28;20025;-55
2022/09/15 07:49:59;;;;;;;27.52;13.15;;;;;;;-145.01;100.00;64805.59;5056025;28;20411;-55
2022/09/15 07:52:24;;;;;;;26.75;12.52;;;;;;;-145.01;100.00;64805.59;5057398;28;20025;-55
2022/09/15 07:54:49;;;;;;;27.55;12.95;;;;;;;-145.01;100.00;64805.59;5053224;28;20025;-56
2022/09/15 07:57:15;;;;;;;26.73;13.77;;;;;;;-145.01;100.00;64805.59;5058523;28;20056;-55
2022/09/15 07:59:40;;;;;;;35.55;13.82;;;;;;;-145.01;100.00;64805.59;5052432;28;20021;-55
2022/09/15 08:02:15;;;;;;;25.08;12.70;;;;;;;-145.01;100.00;64805.59;5056872;28;20028;-55
2022/09/15 08:04:41;;;;;;;33.67;13.35;;;;;;;-145.01;100.00;64805.59;5055968;28;20052;-56
2022/09/15 08:07:06;;;;;;;26.27;12.18;;;;;;;-145.01;100.00;64805.59;5056676;28;20059;-55
2022/09/15 08:09:32;;;;;;;24.02;12.38;;;;;;;-145.01;100.00;64805.59;5055338;28;20078;-55
2022/09/15 08:11:57;;;;;;;21.90;11.93;;;;;;;-145.01;100.00;64805.59;5049567;28;20422;-55
2022/09/15 08:14:22;;;;;;;28.23;11.68;;;;;;;-145.01;100.00;64805.59;5056095;28;20040;-54
2022/09/15 08:16:48;;;;;;;24.30;11.63;;;;;;;-145.01;100.00;64805.59;5053515;28;20112;-55
2022/09/15 08:19:13;;;;;;;26.70;12.00;;;;;;;-145.01;100.00;64805.59;5057440;28;20036;-55
2022/09/15 08:21:41;;;;;;;25.83;11.90;;;;;;;-145.01;100.00;64805.59;5057387;28;20028;-53
2022/09/15 08:24:07;;;;;;;26.10;10.77;;;;;;;-145.01;100.00;64805.59;5056388;28;20036;-57
2022/09/15 08:26:35;;;;;;;26.60;12.57;;;;;;;-145.01;100.00;64805.59;5057429;28;20048;-56
2022/09/15 08:29:00;;;;;;;27.35;11.68;;;;;;;-145.01;100.00;64805.59;5050617;28;20029;-55
2022/09/15 08:31:26;;;;;;;29.00;12.18;;;;;;;-145.01;100.00;64805.59;5050483;28;20029;-55
2022/09/15 08:33:52;;;;;;;22.45;10.85;;;;;;;-145.01;100.00;64805.59;5054571;28;20033;-54
2022/09/15 08:36:17;;;;;;;27.83;11.82;;;;;;;-145.01;100.00;64805.59;5050957;28;20463;-55
2022/09/15 08:38:43;;;;;;;32.88;12.45;;;;;;;-145.01;100.00;64805.59;5050758;28;20024;-55
2022/09/15 08:41:28;;;;;;;32.45;11.85;;;;;;;-145.01;100.00;64805.59;5050707;28;20029;-55
2022/09/15 08:44:21;;;;;;;27.38;11.07;;;;;;;-145.01;100.00;64805.59;5055563;28;20108;-54
2022/09/15 08:46:46;;;;;;;21.25;11.20;;;;;;;-145.01;100.00;64805.59;5052807;28;20029;-56
2022/09/15 08:49:16;;;;;;;21.98;12.90;;;;;;;-145.01;100.00;64805.59;5060866;28;20503;-55
2022/09/15 08:51:46;;;;;;;21.25;11.32;;;;;;;-145.01;100.00;64805.59;5032160;28;20021;-55
2022/09/15 08:54:20;;;;;;;22.95;11.68;;;;;;;-145.01;100.00;64805.59;5048953;28;20025;-55
2022/09/15 08:56:45;;;;;;;21.95;11.65;;;;;;;-145.01;100.00;64805.59;5082693;28;20029;-55
2022/09/15 08:59:14;;;;;;;21.77;11.93;;;;;;;-145.01;100.00;64805.59;5040958;28;20471;-55
2022/09/15 09:01:45;;;;;;;29.03;13.83;;;;;;;-145.01;100.00;64805.59;5056989;28;20102;-54
2022/09/15 09:04:29;;;;;;;27.13;13.02;;;;;;;-145.01;100.00;64805.59;5051909;28;20190;-55
2022/09/15 09:07:17;;;;;;;23.85;12.63;;;;;;;-145.01;100.00;64805.59;5057128;28;20033;-55
2022/09/15 09:10:13;;;;;;;27.27;13.13;;;;;;;-145.01;100.00;64805.59;5056854;28;20578;-54
2022/09/15 09:13:10;;;;;;;25.48;12.25;;;;;;;-145.01;100.00;64805.59;5055327;28;20087;-55
2022/09/15 09:15:46;;;;;;;28.42;13.75;;;;;;;-145.01;100.00;64805.59;5085797;28;20562;-55
2022/09/15 09:18:21;;;;;;;27.58;16.08;;;;;;;-145.01;100.00;64805.59;5050080;28;20043;-55
2022/09/15 09:21:11;;;;;;;35.80;15.27;;;;;;;-145.01;100.00;64805.59;5054061;28;20468;-55
2022/09/15 09:23:51;;;;;;;33.17;15.27;;;;;;;-145.01;100.00;64805.59;5049900;28;20579;-55
2022/09/15 09:26:16;;;;;;;;;;;;;;;-145.01;100.00;64805.59;5049243;28;20041;-54
2022/09/15 09:28:49;;;;;;;23.85;14.57;;;;;;;-145.01;100.00;64805.59;5056591;28;19935;-55
2022/09/15 09:31:19;;;;;;;25.00;13.90;;;;;;;-145.01;100.00;64805.59;5048529;28;20041;-55
2022/09/15 09:34:36;;;;;;;26.38;13.70;;;;;;;-145.01;100.00;64805.59;5071593;28;20021;-55
2022/09/15 09:37:09;;;;;;;21.63;12.40;;;;;;;-145.01;100.00;64805.59;5024914;28;20041;-57
2022/09/15 09:39:35;;;;;;;25.02;12.88;;;;;;;-145.01;100.00;64805.59;5049094;28;20518;-54
2022/09/15 09:42:01;;;;;;;24.65;14.07;;;;;;;-145.01;100.00;64805.59;5058072;28;20031;-55
2022/09/15 09:44:30;;;;;;;20.05;13.00;;;;;;;-145.01;100.00;64805.59;5060693;28;20032;-53
2022/09/15 09:46:57;;;;;;;23.33;12.97;;;;;;;-145.01;100.00;64805.59;5054444;28;20017;-54
2022/09/15 09:49:23;;;;;;;19.30;12.52;;;;;;;-145.01;100.00;64805.59;5063740;28;20037;-55
2022/09/15 09:51:58;;;;;;;19.30;11.55;;;;;;;-145.01;100.00;64805.59;5066190;28;20081;-54
2022/09/15 09:54:28;;;;;;;17.52;11.80;;;;;;;-145.01;100.00;64805.59;5062937;28;20425;-55
2022/09/15 09:56:54;;;;;;;19.07;11.73;;;;;;;-145.01;100.00;64805.59;5057463;28;20040;-55
2022/09/15 09:59:31;;;;;;;20.52;10.95;;;;;;;-145.01;100.00;64805.59;5051980;28;20073;-55
2022/09/15 10:02:24;;;;;;;17.80;10.57;;;;;;;-145.01;100.00;64805.59;5058725;28;20024;-54
2022/09/15 10:05:01;;;;;;;24.48;10.02;;;;;;;-145.01;100.00;64805.59;5058458;28;20606;-55
2022/09/15 10:07:27;;;;;;;16.92;9.13;;;;;;;-145.01;100.00;64805.59;5055046;28;20036;-55
2022/09/15 10:09:57;;;;;;;16.60;8.13;;;;;;;-145.01;100.00;64805.59;5056501;28;20025;-55
2022/09/15 10:12:24;;;;;;;15.35;8.10;;;;;;;-145.01;100.00;64805.59;5058601;28;20064;-56
2022/09/15 10:14:52;;;;;;;14.98;7.95;;;;;;;-145.01;100.00;64805.59;5042009;28;20067;-55
2022/09/15 10:17:26;;;;;;;13.48;7.80;;;;;;;-145.01;100.00;64805.59;5052095;28;20174;-55
2022/09/15 10:19:55;;;;;;;16.77;6.60;;;;;;;-145.01;100.00;64805.59;5084672;28;20497;-55
2022/09/15 10:22:29;;;;;;;12.40;6.72;;;;;;;-145.01;100.00;64805.59;5057883;28;20029;-55
2022/09/15 10:24:57;;;;;;;12.45;6.47;;;;;;;-145.01;100.00;64805.59;5053824;28;20476;-55
2022/09/15 10:27:33;;;;;;;16.65;7.38;;;;;;;-145.01;100.00;64805.59;5060388;28;20086;-55
2022/09/15 10:30:19;;;;;;;11.65;7.30;;;;;;;-145.01;100.00;64805.59;5061310;28;20043;-54
2022/09/15 10:32:44;;;;;;;18.23;8.15;;;;;;;-145.01;100.00;64805.59;5055423;28;20044;-53
2022/09/15 10:35:14;;;;;;;12.30;7.22;;;;;;;-145.01;100.00;64805.59;5061233;28;20029;-54
2022/09/15 10:38:10;;;;;;;11.50;5.80;;;;;;;-145.01;100.00;64805.59;5058917;28;20064;-54
2022/09/15 10:40:42;;;;;;;13.55;5.70;;;;;;;-145.01;100.00;64805.59;5052526;28;20037;-54
2022/09/15 10:43:27;;;;;;;9.27;5.70;;;;;;;-145.01;100.00;64805.59;5054053;28;20036;-55
2022/09/15 10:46:06;;;;;;;11.95;4.90;;;;;;;-145.01;100.00;64805.59;5054725;28;20040;-55
2022/09/15 10:48:37;;;;;;;10.45;4.80;;;;;;;-145.01;100.00;64805.59;5051060;28;20630;-55
2022/09/15 10:51:37;;;;;;;11.90;5.47;;;;;;;-145.01;100.00;64805.59;5071229;28;20071;-54
2022/09/15 10:54:06;;;;;;;;;;;;;;;-145.01;100.00;64805.59;5051703;28;20017;-55
2022/09/15 10:56:35;;;;;;;12.82;6.43;;;;;;;-145.01;100.00;64805.59;5060872;28;19920;-55
2022/09/15 10:59:03;;;;;;;10.68;5.72;;;;;;;-145.01;100.00;64805.59;5053152;28;20025;-54
2022/09/15 11:01:29;;;;;;;12.15;5.57;;;;;;;-145.01;100.00;64805.59;5052200;28;20488;-54
2022/09/15 11:04:29;;;;;;;12.27;5.13;;;;;;;-145.01;100.00;64805.59;5051695;28;20069;-55